Tiempo atmosférico en la estación meteorológica de Calasparra, Murcia (394 m.)



Fecha
DESCASC
Temp. máxima en grados centígrados (hora)
DESCASC
Temp. mínima en grados centígrados (hora)
DESCASC
Temp. media en grados centígrados
DESCASC
Racha de viento máxima en m/sg (hora)
DESCASC
Velocidad máxima media en intervalos de 10 minutos(hora)
DESCASC
Precipitaciones diarias en mm
DESCASC
Precipitaciones de 00:00 a 06:00 en mm
DESCASC
Precipitaciones de 06:00 a 12:00 en mm
DESCASC
Precipitaciones de 12:00 a 18:00 en mm
DESCASC
Precipitaciones de 18:00 a 24:00 en mm
DESCASC
18-11-2019 13.7 (14:20) 6.7 (08:20) 10.2 11.94 (13:30) 6.94 (13:40) 3.6 3.6 0 0 0
17-11-2019 14.7 (15:50) 1.7 (07:50) 8.2 10 (12:10) 5 (12:10) 1 0 0 0 1
16-11-2019 13.3 (14:20) 3.5 (01:20) 8.4 10.56 (10:50) 5.83 (12:10) 0 0 0 0 0
15-11-2019 11.6 (14:00) 4.9 (23:40) 8.3 12.22 (02:10) 5.83 (15:00) 0 0 0 0 0
14-11-2019 17.4 (11:40) 9.1 (00:00) 13.3 15 (13:30) 8.61 (13:30) 0 0 0 0 0
13-11-2019 20 (15:40) 8.6 (00:00) 14.3 17.22 (12:20) 8.33 (12:30) 0 0 0 0 0
12-11-2019 17.4 (14:20) 8.1 (00:00) 12.8 10.83 (15:00) 5.28 (12:20) 0 0 0 0 0
11-11-2019 15.2 (15:20) 7.8 (02:40) 11.5 11.67 (15:50) 6.39 (11:40) 0 0 0 0 0
10-11-2019 14.5 (14:10) 9.3 (00:00) 11.9 15.56 (07:00) 8.61 (13:20) 0.2 0.2 0 0 0
09-11-2019 19.2 (15:00) 6.6 (00:00) 12.9 8.33 (12:00) 4.44 (13:40) 0.4 0 0 0 0.4
08-11-2019 14.3 (15:10) 8.6 (00:00) 11.5 12.5 (10:50) 7.5 (12:50) 0 0 0 0 0
07-11-2019 18.6 (13:00) 6.8 (00:00) 12.7 7.22 (22:40) 3.89 (22:30) 1 0 0 1 0
06-11-2019 17.5 (15:00) 9 (00:00) 13.3 10.28 (15:30) 5.28 (15:50) 0 0 0 0 0
05-11-2019 17.6 (00:00) 12.8 (00:00) 15.2 14.17 (15:00) 7.22 (13:00) 0 0 0 0 0
04-11-2019 23.7 (14:00) 14.4 (00:00) 19.1 12.22 (16:00) 6.39 (16:00) 0 0 0 0 0
03-11-2019 22.7 (10:50) 16.6 (00:00) 19.7 15.28 (14:30) 6.94 (14:40) 0 0 0 0 0
02-11-2019 24.5 (13:40) 16.7 (00:00) 20.6 10.83 (13:20) 5.56 (13:20) 0 0 0 0 0
01-11-2019 25.5 (14:50) 14.8 (00:00) 20.2 10.56 (14:30) 5.28 (11:30) 0 0 0 0 0
31-10-2019 24.6 (14:10) 15 (05:40) 19.8 9.17 (14:30) 4.72 (13:30) 0 0 0 0 0
30-10-2019 25 (14:40) 12.3 (00:00) 18.7 5.56 (13:10) 3.33 (13:10) 0 0 0 0 0
29-10-2019 24.8 (15:00) 10.8 (00:00) 17.8 4.17 (17:20) 2.78 (22:20) 0 0 0 0 0
28-10-2019 21.3 (16:10) 12.1 (00:00) 16.7 2.78 (12:30) 1.67 (07:50) 0 0 0 0 0
27-10-2019 21 (16:10) 11.5 (00:00) 16.3 5 (16:50) 3.33 (16:50) 0 0 0 0 0
26-10-2019 23.5 (17:10) 9.3 (00:00) 16.4 5 (18:30) 3.06 (18:20) 0 0 0 0 0
25-10-2019 23.5 (16:10) 8.4 (00:00) 15.9 5 (19:30) 2.5 (03:20) 0 0 0 0 0
24-10-2019 19 (16:50) 9.2 (00:00) 14.1 10.28 (13:10) 5.83 (13:20) 0 0 0 0 0
23-10-2019 17.1 (15:30) 6.8 (00:00) 12 9.17 (16:50) 5.56 (16:50) 0.4 0.2 0 0 0.2
22-10-2019 12.5 (17:30) 10.7 (00:00) 11.6 5 (03:20) 3.06 (03:10) 35.6 2.8 26.4 5.6 0.8

Gráficas

Temp. máximas Temp. mínimas Temp. medias Precipitaciones Rachas de viento máximas Velocidades máximas media en intervalos de 10 minutos

Datos horarios

Fecha y hora oficial Temperatura (ºC) Velocidad del viento (km/h) Dirección del viento Racha (km/h) Dirección de racha Precipitación (mm) Presión (hPa) Tendencia (hPa) Humedad (%)
2019-11-20 23:00:00 8.1 6 Sur 11 Sur 0 -- -- 82
2019-11-20 22:00:00 8.7 4 Sur 6 Sur 0 -- -- 82
2019-11-20 21:00:00 9.5 4 Sudoeste 9 Sudoeste 0 -- -- 77
2019-11-20 20:00:00 9.8 4 Sudoeste 9 Oeste 0 -- -- 78
2019-11-20 19:00:00 10.4 5 Oeste 8 Oeste 0.2 -- -- 73
2019-11-20 18:00:00 11.4 0 Calma 6 Nordeste 0 -- -- 61
2019-11-20 17:00:00 12.2 4 Nordeste 12 Este 0 -- -- 59
2019-11-20 16:00:00 12.4 5 Nordeste 12 Nordeste 0 -- -- 56
2019-11-20 15:00:00 13.4 8 Nordeste 13 Este 0 -- -- 51
2019-11-20 14:00:00 13.1 4 Este 8 Nordeste 0 -- -- 52
2019-11-20 13:00:00 11.6 3 Nordeste 9 Nordeste 0 -- -- 53
2019-11-20 12:00:00 10.3 4 Nordeste 9 Norte 0 -- -- 55
2019-11-20 11:00:00 8 5 Norte 9 Noroeste 0 -- -- 64
2019-11-20 10:00:00 6.3 0 Calma 6 Noroeste 0 -- -- 71
2019-11-20 09:00:00 3.8 3 Sur 6 Sur 0 -- -- 78
2019-11-20 08:00:00 1.8 4 Sur 6 Sudoeste 0 -- -- 84
2019-11-20 07:00:00 2.6 4 Sudoeste 7 Sudoeste 0 -- -- 83
2019-11-20 06:00:00 3 4 Sudoeste 6 Sudoeste 0 -- -- 81
2019-11-20 05:00:00 3.8 4 Sur 7 Sudoeste 0 -- -- 79
2019-11-20 04:00:00 4.2 4 Sur 6 Sudoeste 0 -- -- 77
2019-11-20 03:00:00 4.7 5 Sudoeste 9 Sudoeste 0 -- -- 75
2019-11-20 02:00:00 4.9 6 Sur 12 Sur 0 -- -- 76
2019-11-20 01:00:00 5 5 Sur 10 Sur 0 -- -- 75
2019-11-20 00:00:00 5.7 4 Sur 7 Sur 0 -- -- 72
2019-11-19 23:00:00 6.5 5 Sur 6 Sur 0 -- -- 73
2019-11-19 22:00:00 7.8 3 Sur 8 Sur 0 -- -- 69
2019-11-19 21:00:00 9.3 4 Sudoeste 6 Sudoeste 0 -- -- 61
2019-11-19 20:00:00 10.2 0 Calma 8 Noroeste 0 -- -- 55
2019-11-19 19:00:00 10.6 3 Nordeste 6 Nordeste 0 -- -- 52
2019-11-19 18:00:00 12.2 3 Este 13 Este 0 -- -- 48
2019-11-19 17:00:00 13 3 Noroeste 16 Oeste 0 -- -- 43
2019-11-19 16:00:00 14.3 5 Norte 16 Oeste 0 -- -- 41
2019-11-19 15:00:00 14.2 9 Noroeste 25 Oeste 0 -- -- 40
2019-11-19 14:00:00 13.9 14 Noroeste 24 Noroeste 0 -- -- 41
2019-11-19 13:00:00 13.2 9 Noroeste 14 Noroeste 0 -- -- 44
2019-11-19 12:00:00 11.9 0 Calma 7 Nordeste 0 -- -- 48
2019-11-19 11:00:00 10.7 4 Norte 6 Norte 0 -- -- 51
2019-11-19 10:00:00 8.4 2 Sur 8 Sudeste 0 -- -- 59
2019-11-19 09:00:00 5.6 4 Sudeste 11 Sudeste 0 -- -- 65
2019-11-19 08:00:00 3.6 5 Sur 12 Oeste 0 -- -- 72
2019-11-19 07:00:00 4.5 4 Sudoeste 8 Sur 0 -- -- 69
2019-11-19 06:00:00 5.1 3 Noroeste 8 Sur 0 -- -- 66
2019-11-19 05:00:00 6.1 6 Sur 11 Sudoeste 0 -- -- 64
2019-11-19 04:00:00 5.9 7 Noroeste 13 Oeste 0 -- -- 64
2019-11-19 03:00:00 6.9 5 Noroeste 12 Noroeste 0 -- -- 61
2019-11-19 02:00:00 6.6 9 Oeste 15 Oeste 0 -- -- 63
2019-11-19 01:00:00 7.5 5 Oeste 12 Norte 0 -- -- 58
2019-11-19 00:00:00 7.1 7 Oeste 16 Noroeste 0 -- -- 61
2019-11-18 23:00:00 8.8 9 Oeste 18 Oeste 0 -- -- 56
2019-11-18 22:00:00 8.8 8 Oeste 17 Oeste 0 -- -- 58
2019-11-18 21:00:00 9.6 5 Oeste 14 Oeste 0 -- -- 54
2019-11-18 20:00:00 10.3 8 Oeste 16 Oeste 0 -- -- 49
2019-11-18 19:00:00 10.2 7 Sudoeste 11 Oeste 0 -- -- 51
2019-11-18 18:00:00 10.6 9 Noroeste 33 Norte 0 -- -- 49
2019-11-18 17:00:00 11.9 21 Norte 40 Norte 0 -- -- 45
2019-11-18 16:00:00 12.8 18 Noroeste 34 Noroeste 0 -- -- 45
2019-11-18 15:00:00 12.8 13 Norte 35 Noroeste 0 -- -- 49
2019-11-18 14:00:00 13.5 23 Norte 43 Norte 0 -- -- 45
2019-11-18 13:00:00 13.3 13 Noroeste 31 Noroeste 0 -- -- 49
2019-11-18 12:00:00 12.5 18 Noroeste 33 Norte 0 -- -- 53
2019-11-18 11:00:00 11.3 19 Noroeste 37 Noroeste 0 -- -- 55
2019-11-18 10:00:00 10.5 12 Noroeste 24 Noroeste 0 -- -- 62
2019-11-18 09:00:00 8.1 8 Noroeste 17 Noroeste 0 -- -- 74
2019-11-18 08:00:00 7.1 4 Norte 19 Oeste 0 -- -- 79
2019-11-18 07:00:00 7.6 9 Oeste 19 Oeste 0 -- -- 83
2019-11-18 06:00:00 7.7 0 Calma 9 Norte 0 -- -- 88
2019-11-18 05:00:00 8.3 0 Calma 14 Oeste 0 -- -- 86
2019-11-18 04:00:00 8.4 8 Oeste 16 Noroeste 1.6 -- -- 90
2019-11-18 03:00:00 8.6 12 Noroeste 20 Noroeste 1 -- -- 93
2019-11-18 02:00:00 8.9 2 Norte 19 Oeste 0.4 -- -- 92
2019-11-18 01:00:00 8.7 6 Norte 11 Noroeste 0.6 -- -- 91
2019-11-18 00:00:00 9.2 0 Calma 8 Norte 0.6 -- -- 84
2019-11-17 23:00:00 9.3 5 Noroeste 21 Sur 0.4 -- -- 82
2019-11-17 22:00:00 11.1 8 Sur 15 Sur 0 -- -- 74
2019-11-17 21:00:00 11.5 8 Sudeste 11 Sudeste 0 -- -- 65
2019-11-17 20:00:00 11.7 2 Sur 11 Oeste 0 -- -- 63
2019-11-17 19:00:00 12 6 Oeste 14 Oeste 0 -- -- 61
2019-11-17 18:00:00 13.9 9 Oeste 27 Noroeste 0 -- -- 54
2019-11-17 17:00:00 13.9 5 Este 13 Norte 0 -- -- 52
2019-11-17 16:00:00 14.7 5 Norte 21 Noroeste 0 -- -- 49
2019-11-17 15:00:00 14.4 10 Noroeste 21 Norte 0 -- -- 49
2019-11-17 14:00:00 14.3 10 Noroeste 23 Oeste 0 -- -- 46
2019-11-17 13:00:00 14.4 11 Oeste 36 Noroeste 0 -- -- 43
2019-11-17 12:00:00 14.3 14 Oeste 23 Oeste 0 -- -- 38
2019-11-17 11:00:00 10.8 6 Sur 12 Sur 0 -- -- 51
2019-11-17 10:00:00 6.9 5 Sur 11 Sudeste 0 -- -- 60
2019-11-17 09:00:00 3.4 6 Sur 10 Sur 0 -- -- 68
2019-11-17 08:00:00 1.8 6 Sur 12 Sudoeste 0 -- -- 74
2019-11-17 07:00:00 2.1 7 Sur 10 Sur 0 -- -- 72
2019-11-17 06:00:00 3.1 6 Sudoeste 9 Sudoeste 0 -- -- 68
2019-11-17 05:00:00 3.5 6 Sur 10 Sudoeste 0 -- -- 66
2019-11-17 04:00:00 3.9 6 Sur 11 Sudoeste 0 -- -- 65
2019-11-17 03:00:00 4.4 3 Sur 8 Sur 0 -- -- 63
2019-11-17 02:00:00 5.1 5 Sur 8 Sudoeste 0 -- -- 61
2019-11-17 01:00:00 5.8 6 Sudoeste 11 Oeste 0 -- -- 57
2019-11-17 00:00:00 8.4 7 Oeste 11 Oeste 0 -- -- 50
2019-11-16 23:00:00 7.1 5 Sudoeste 7 Sur 0 -- -- 54
2019-11-16 22:00:00 7.1 5 Sur 8 Sudoeste 0 -- -- 56
2019-11-16 21:00:00 8.1 4 Oeste 16 Oeste 0 -- -- 52
2019-11-16 20:00:00 8.5 8 Oeste 15 Oeste 0 -- -- 51
2019-11-16 19:00:00 9.5 8 Oeste 22 Oeste 0 -- -- 46
2019-11-16 18:00:00 9.9 9 Oeste 26 Oeste 0 -- -- 47
2019-11-16 17:00:00 11.5 13 Noroeste 33 Noroeste 0 -- -- 41
2019-11-16 16:00:00 12.9 14 Noroeste 32 Noroeste 0 -- -- 36
2019-11-16 15:00:00 13.1 16 Noroeste 38 Oeste 0 -- -- 38
2019-11-16 14:00:00 13 15 Noroeste 32 Oeste 0 -- -- 41
2019-11-16 13:00:00 12.1 18 Noroeste 37 Noroeste 0 -- -- 41
2019-11-16 12:00:00 11 20 Noroeste 33 Noroeste 0 -- -- 45
2019-11-16 11:00:00 10.1 17 Noroeste 38 Noroeste 0 -- -- 51
2019-11-16 10:00:00 9 12 Noroeste 23 Noroeste 0 -- -- 56
2019-11-16 09:00:00 6.2 5 Oeste 12 Oeste 0 -- -- 64
2019-11-16 08:00:00 3.8 2 Noroeste 10 Oeste 0 -- -- 73
2019-11-16 07:00:00 3.7 3 Oeste 8 Noroeste 0 -- -- 74
2019-11-16 06:00:00 4.8 3 Oeste 12 Oeste 0 -- -- 69
2019-11-16 05:00:00 5.5 7 Oeste 12 Oeste 0 -- -- 68
2019-11-16 04:00:00 4.4 6 Noroeste 9 Noroeste 0 -- -- 73
2019-11-16 03:00:00 4.7 2 Nordeste 6 Oeste 0 -- -- 70
2019-11-16 02:00:00 4.5 4 Oeste 9 Oeste 0 -- -- 71
2019-11-16 01:00:00 4.3 4 Sur 7 Sudeste 0 -- -- 67
2019-11-16 00:00:00 5 0 Calma 4 Sur 0 -- -- 66
2019-11-15 23:00:00 5.4 0 Calma 4 Sudeste 0 -- -- 64
2019-11-15 22:00:00 5.5 3 Sudeste 9 Sudoeste 0 -- -- 64
2019-11-15 21:00:00 5.9 2 Oeste 6 Oeste 0 -- -- 62
2019-11-15 20:00:00 6.7 0 Calma -- -- 0 -- -- 59
2019-11-15 19:00:00 7.8 4 Oeste 18 Oeste 0 -- -- 54
2019-11-15 18:00:00 8.5 8 Oeste 25 Noroeste 0 -- -- 54
2019-11-15 17:00:00 9.4 10 Noroeste 28 Noroeste 0 -- -- 51
2019-11-15 16:00:00 10.7 12 Oeste 33 Noroeste 0 -- -- 45
2019-11-15 15:00:00 11.2 21 Noroeste 38 Noroeste 0 -- -- 44
2019-11-15 14:00:00 11.6 13 Oeste 27 Oeste 0 -- -- 44
2019-11-15 13:00:00 10.6 12 Noroeste 24 Noroeste 0 -- -- 48
2019-11-15 12:00:00 10.2 9 Noroeste 20 Noroeste 0 -- -- 51
2019-11-15 11:00:00 9.6 13 Oeste 26 Oeste 0 -- -- 53
2019-11-15 10:00:00 8.6 6 Oeste 18 Noroeste 0 -- -- 64
2019-11-15 09:00:00 8.5 8 Noroeste 16 Noroeste 0 -- -- 62
2019-11-15 08:00:00 7 4 Oeste 14 Oeste 0 -- -- 66
2019-11-15 07:00:00 7.7 3 Oeste 14 Oeste 0 -- -- 61
2019-11-15 06:00:00 8.1 5 Sudoeste 12 Oeste 0 -- -- 60
2019-11-15 05:00:00 8.3 4 Oeste 20 Oeste 0 -- -- 60
2019-11-15 04:00:00 8 2 Nordeste 9 Este 0 -- -- 62
2019-11-15 03:00:00 9.1 3 Oeste 44 Noroeste 0 -- -- 55
2019-11-15 02:00:00 9.8 18 Noroeste 37 Oeste 0 -- -- 52
2019-11-15 01:00:00 9.8 10 Oeste 19 Oeste 0 -- -- 51
2019-11-15 00:00:00 9.7 4 Norte 14 Sudoeste 0 -- -- 52
2019-11-14 23:00:00 10.5 5 Sudeste 14 Noroeste 0 -- -- 46
2019-11-14 22:00:00 10.9 6 Sudeste 20 Sudeste 0 -- -- 45
2019-11-14 21:00:00 11.1 7 Sudoeste 27 Noroeste 0 -- -- 44
2019-11-14 20:00:00 10.3 5 Sur 15 Sur 0 -- -- 47
2019-11-14 19:00:00 10.7 8 Sudoeste 33 Oeste 0 -- -- 50
2019-11-14 18:00:00 11.1 12 Oeste 39 Oeste 0 -- -- 49
2019-11-14 17:00:00 12 12 Oeste 25 Sudoeste 0 -- -- 45
2019-11-14 16:00:00 11.9 22 Oeste 44 Oeste 0 -- -- 49
2019-11-14 15:00:00 10.5 6 Oeste 36 Noroeste 0 -- -- 65
2019-11-14 14:00:00 9.9 23 Norte 54 Norte 0 -- -- 68
2019-11-14 13:00:00 16.1 13 Oeste 36 Sudoeste 0 -- -- 45
2019-11-14 12:00:00 17.2 10 Oeste 37 Sudoeste 0 -- -- 43
2019-11-14 11:00:00 16.7 12 Sudoeste 31 Sudoeste 0 -- -- 44
2019-11-14 10:00:00 13.1 4 Sudoeste 14 Noroeste 0 -- -- 54
2019-11-14 09:00:00 11.6 6 Oeste 15 Noroeste 0 -- -- 61
2019-11-14 08:00:00 10.5 4 Sur 13 Noroeste 0 -- -- 65
2019-11-14 07:00:00 10.3 6 Sur 15 Oeste 0 -- -- 68
2019-11-14 06:00:00 10.6 2 Sudeste 17 Sur 0 -- -- 73
2019-11-14 05:00:00 12.7 10 Sur 20 Sudoeste 0 -- -- 66
2019-11-14 04:00:00 12.6 8 Sur 14 Sur 0 -- -- 69
2019-11-14 03:00:00 11.9 2 Sur 10 Sur 0 -- -- 70
2019-11-14 02:00:00 12.5 8 Sur 17 Sur 0 -- -- 69
2019-11-14 01:00:00 12.2 7 Sur 13 Sur 0 -- -- 69
2019-11-14 00:00:00 12.6 4 Sur 16 Sur 0 -- -- 66
2019-11-13 23:00:00 12.7 7 Sur 11 Sur 0 -- -- 64
2019-11-13 22:00:00 12.7 6 Sur 13 Sur 0 -- -- 64
2019-11-13 21:00:00 13.9 5 Sur 9 Oeste 0 -- -- 60
2019-11-13 20:00:00 15.6 6 Oeste 9 Sudoeste 0 -- -- 57
2019-11-13 19:00:00 16 0 Calma 18 Noroeste 0 -- -- 56
2019-11-13 18:00:00 17.1 12 Noroeste 28 Noroeste 0 -- -- 55
2019-11-13 17:00:00 18.4 17 Noroeste 38 Oeste 0 -- -- 50
2019-11-13 16:00:00 19.6 20 Noroeste 40 Norte 0 -- -- 47
2019-11-13 15:00:00 19.4 15 Oeste 60 Noroeste 0 -- -- 47
2019-11-13 14:00:00 19.7 27 Noroeste 51 Oeste 0 -- -- 47
2019-11-13 13:00:00 19.6 25 Noroeste 62 Noroeste 0 -- -- 48
2019-11-13 12:00:00 19.8 28 Noroeste 49 Oeste 0 -- -- 47
2019-11-13 11:00:00 18 19 Oeste 41 Norte 0 -- -- 53
2019-11-13 10:00:00 18 13 Noroeste 27 Oeste 0 -- -- 52
2019-11-13 09:00:00 16 3 Norte 9 Sudoeste 0 -- -- 59
2019-11-13 08:00:00 13.3 3 Sur 9 Sudoeste 0 -- -- 62
2019-11-13 07:00:00 12.8 4 Oeste 9 Este 0 -- -- 63
2019-11-13 06:00:00 12.4 2 Nordeste 19 Sudoeste 0 -- -- 62
2019-11-13 05:00:00 15 11 Oeste 42 Sudoeste 0 -- -- 54
2019-11-13 04:00:00 11.8 5 Noroeste 22 Sudoeste 0 -- -- 58
2019-11-13 03:00:00 10.8 4 Sur 8 Sudoeste 0 -- -- 59
2019-11-13 02:00:00 9.7 0 Calma 8 Oeste 0 -- -- 63
2019-11-13 01:00:00 9.6 4 Sudoeste 10 Noroeste 0 -- -- 61
2019-11-13 00:00:00 8.6 8 Oeste 12 Oeste 0 -- -- 62
2019-11-12 23:00:00 9.2 3 Sur 9 Sur 0 -- -- 59
2019-11-12 22:00:00 9.8 6 Sur 11 Sudeste 0 -- -- 55
2019-11-12 21:00:00 11.8 5 Oeste 12 Oeste 0 -- -- 49
2019-11-12 20:00:00 12 5 Oeste 12 Oeste 0 -- -- 46
2019-11-12 19:00:00 12.8 8 Oeste 16 Oeste 0 -- -- 43
2019-11-12 18:00:00 13.9 7 Oeste 26 Sudoeste 0 -- -- 41
2019-11-12 17:00:00 14.7 13 Oeste 34 Oeste 0 -- -- 41
2019-11-12 16:00:00 15.9 18 Oeste 37 Oeste 0 -- -- 37
2019-11-12 15:00:00 16.8 16 Oeste 39 Norte 0 -- -- 36
2019-11-12 14:00:00 17 13 Noroeste 37 Noroeste 0 -- -- 35
2019-11-12 13:00:00 16.3 17 Noroeste 36 Noroeste 0 -- -- 35
2019-11-12 12:00:00 15.9 14 Noroeste 32 Noroeste 0 -- -- 35
2019-11-12 11:00:00 14.2 17 Noroeste 30 Noroeste 0 -- -- 39
2019-11-12 10:00:00 12.6 17 Noroeste 32 Noroeste 0 -- -- 43
2019-11-12 09:00:00 10.3 9 Noroeste 24 Noroeste 0 -- -- 48
2019-11-12 08:00:00 8.4 6 Noroeste 15 Noroeste 0 -- -- 54
2019-11-12 07:00:00 8.1 8 Noroeste 19 Noroeste 0 -- -- 57
2019-11-12 06:00:00 9.2 10 Noroeste 27 Noroeste 0 -- -- 54
2019-11-12 05:00:00 8.9 9 Norte 17 Norte 0 -- -- 58
2019-11-12 04:00:00 9.4 7 Noroeste 19 Norte 0 -- -- 58
2019-11-12 03:00:00 9.6 7 Noroeste 26 Noroeste 0 -- -- 57
2019-11-12 02:00:00 10.6 11 Noroeste 25 Noroeste 0 -- -- 57
2019-11-12 01:00:00 10.2 9 Noroeste 18 Noroeste 0 -- -- 62
2019-11-12 00:00:00 10.3 8 Oeste 15 Oeste 0 -- -- 67
2019-11-11 23:00:00 11.1 5 Noroeste 16 Oeste 0 -- -- 66
2019-11-11 22:00:00 12.1 9 Noroeste 29 Oeste 0 -- -- 63
2019-11-11 21:00:00 12.5 16 Noroeste 29 Noroeste 0 -- -- 62
2019-11-11 20:00:00 12.7 12 Noroeste 35 Noroeste 0 -- -- 60
2019-11-11 19:00:00 13.2 17 Noroeste 37 Norte 0 -- -- 57
2019-11-11 18:00:00 13.6 15 Noroeste 31 Noroeste 0 -- -- 56
2019-11-11 17:00:00 14.7 18 Noroeste 40 Noroeste 0 -- -- 50
2019-11-11 16:00:00 14.9 20 Noroeste 42 Noroeste 0 -- -- 45
2019-11-11 15:00:00 15.1 18 Noroeste 32 Noroeste 0 -- -- 45
2019-11-11 14:00:00 14.4 21 Noroeste 36 Oeste 0 -- -- 44
2019-11-11 13:00:00 13.9 19 Noroeste 37 Oeste 0 -- -- 46
2019-11-11 12:00:00 13.1 22 Noroeste 41 Noroeste 0 -- -- 48
2019-11-11 11:00:00 12.3 16 Noroeste 36 Noroeste 0 -- -- 48
2019-11-11 10:00:00 11.1 14 Noroeste 27 Noroeste 0 -- -- 51
2019-11-11 09:00:00 10 12 Noroeste 27 Noroeste 0 -- -- 54
2019-11-11 08:00:00 9.2 14 Noroeste 27 Noroeste 0 -- -- 54
2019-11-11 07:00:00 8.5 9 Noroeste 27 Noroeste 0 -- -- 56
2019-11-11 06:00:00 8.5 17 Noroeste 32 Oeste 0 -- -- 56
2019-11-11 05:00:00 8.6 17 Noroeste 28 Noroeste 0 -- -- 56
2019-11-11 04:00:00 8.9 15 Noroeste 32 Oeste 0 -- -- 54
2019-11-11 03:00:00 8.3 12 Noroeste 24 Noroeste 0 -- -- 56
2019-11-11 02:00:00 8.7 11 Noroeste 23 Noroeste 0 -- -- 54
2019-11-11 01:00:00 9 13 Noroeste 25 Noroeste 0 -- -- 53
2019-11-11 00:00:00 9.3 8 Noroeste 27 Oeste 0 -- -- 53
2019-11-10 23:00:00 10.3 14 Noroeste 30 Noroeste 0 -- -- 53
2019-11-10 22:00:00 10.4 12 Noroeste 42 Noroeste 0 -- -- 53
2019-11-10 21:00:00 10.9 20 Noroeste 44 Noroeste 0 -- -- 50
2019-11-10 20:00:00 10.9 12 Noroeste 41 Oeste 0 -- -- 50
2019-11-10 19:00:00 11.7 22 Noroeste 44 Oeste 0 -- -- 45
2019-11-10 18:00:00 12.2 19 Noroeste 47 Oeste 0 -- -- 44
2019-11-10 17:00:00 12.7 26 Noroeste 49 Noroeste 0 -- -- 43
2019-11-10 16:00:00 13.3 24 Noroeste 53 Noroeste 0 -- -- 40
2019-11-10 15:00:00 14.4 30 Noroeste 55 Noroeste 0 -- -- 37
2019-11-10 14:00:00 14.3 29 Noroeste 51 Noroeste 0 -- -- 34
2019-11-10 13:00:00 13.9 29 Noroeste 51 Noroeste 0 -- -- 34
2019-11-10 12:00:00 13.5 19 Noroeste 48 Oeste 0 -- -- 39
2019-11-10 11:00:00 12.7 22 Noroeste 47 Noroeste 0 -- -- 42
2019-11-10 10:00:00 11.8 28 Noroeste 53 Noroeste 0 -- -- 45
2019-11-10 09:00:00 11.6 18 Noroeste 51 Noroeste 0 -- -- 49
2019-11-10 08:00:00 11.6 24 Noroeste 53 Noroeste 0 -- -- 49
2019-11-10 07:00:00 12.3 25 Noroeste 56 Noroeste 0 -- -- 47
2019-11-10 06:00:00 11.9 17 Noroeste 46 Noroeste 0.2 -- -- 64
2019-11-10 05:00:00 12.8 15 Noroeste 36 Noroeste 0 -- -- 61
2019-11-10 04:00:00 13.2 4 Norte 20 Sudoeste 0 -- -- 58
2019-11-10 03:00:00 12.5 6 Sudoeste 20 Norte 0 -- -- 62
2019-11-10 02:00:00 12.3 8 Norte 15 Norte 0 -- -- 67
2019-11-10 01:00:00 11.3 3 Noroeste 10 Sur 0 -- -- 70
2019-11-10 00:00:00 11.4 9 Oeste 17 Oeste 0 -- -- 68
2019-11-09 23:00:00 11.2 7 Oeste 10 Oeste 0 -- -- 70
2019-11-09 22:00:00 10.8 8 Noroeste 14 Noroeste 0.2 -- -- 75
2019-11-09 21:00:00 11.9 8 Norte 21 Norte 0.2 -- -- 67
2019-11-09 20:00:00 14.5 8 Noroeste 23 Oeste 0 -- -- 38
2019-11-09 19:00:00 15.3 12 Oeste 28 Sudoeste 0 -- -- 33
2019-11-09 18:00:00 15.8 6 Oeste 15 Oeste 0 -- -- 34
2019-11-09 17:00:00 17.3 3 Norte 9 Norte 0 -- -- 28
2019-11-09 16:00:00 18 5 Norte 27 Norte 0 -- -- 29
2019-11-09 15:00:00 19.2 9 Noroeste 22 Norte 0 -- -- 26
2019-11-09 14:00:00 17.5 15 Noroeste 28 Noroeste 0 -- -- 32
2019-11-09 13:00:00 16.6 15 Norte 27 Noroeste 0 -- -- 36
2019-11-09 12:00:00 15.1 15 Noroeste 30 Noroeste 0 -- -- 40
2019-11-09 11:00:00 13.6 12 Noroeste 24 Noroeste 0 -- -- 43
2019-11-09 10:00:00 9.9 9 Oeste 17 Oeste 0 -- -- 58
2019-11-09 09:00:00 7.7 9 Oeste 15 Oeste 0 -- -- 62
2019-11-09 08:00:00 6.9 6 Oeste 15 Sudoeste 0 -- -- 65
2019-11-09 07:00:00 6.8 7 Oeste 12 Oeste 0 -- -- 65
2019-11-09 06:00:00 6.9 4 Oeste 14 Oeste 0 -- -- 64
2019-11-09 05:00:00 7.5 6 Oeste 15 Oeste 0 -- -- 62
2019-11-09 04:00:00 8.9 8 Oeste 18 Oeste 0 -- -- 56
2019-11-09 03:00:00 9 7 Oeste 23 Sudoeste 0 -- -- 54
2019-11-09 02:00:00 10.1 6 Oeste 14 Oeste 0 -- -- 49
2019-11-09 01:00:00 9.4 4 Sur 9 Oeste 0 -- -- 50
2019-11-09 00:00:00 9.6 2 Sudoeste 10 Sudoeste 0 -- -- 50
2019-11-08 23:00:00 10 5 Sudoeste 12 Sudoeste 0 -- -- 50
2019-11-08 22:00:00 10.2 9 Oeste 12 Oeste 0 -- -- 52
2019-11-08 21:00:00 10.2 2 Este 22 Noroeste 0 -- -- 52
2019-11-08 20:00:00 11.4 10 Oeste 21 Oeste 0 -- -- 47
2019-11-08 19:00:00 11.8 10 Oeste 24 Oeste 0 -- -- 45
2019-11-08 18:00:00 12.7 13 Oeste 30 Sudoeste 0 -- -- 43
2019-11-08 17:00:00 13.6 13 Oeste 32 Oeste 0 -- -- 40
2019-11-08 16:00:00 14.2 17 Noroeste 39 Oeste 0 -- -- 38
2019-11-08 15:00:00 14.2 18 Oeste 41 Oeste 0 -- -- 39
2019-11-08 14:00:00 13.8 22 Noroeste 43 Noroeste 0 -- -- 40
2019-11-08 13:00:00 13.6 21 Noroeste 45 Noroeste 0 -- -- 41
2019-11-08 12:00:00 12.7 24 Oeste 44 Oeste 0 -- -- 43
2019-11-08 11:00:00 12.2 23 Oeste 45 Noroeste 0 -- -- 45
2019-11-08 10:00:00 11.6 16 Noroeste 31 Noroeste 0 -- -- 49
2019-11-08 09:00:00 10.4 12 Oeste 27 Oeste 0 -- -- 52
2019-11-08 08:00:00 8.6 3 Noroeste 24 Oeste 0 -- -- 58
2019-11-08 07:00:00 9.5 9 Oeste 28 Noroeste 0 -- -- 53
2019-11-08 06:00:00 9.5 6 Oeste 19 Oeste 0 -- -- 53
2019-11-08 05:00:00 9.2 5 Noroeste 18 Noroeste 0 -- -- 55
2019-11-08 04:00:00 8.9 5 Noroeste 12 Noroeste 0 -- -- 58
2019-11-08 03:00:00 9.7 5 Noroeste 15 Noroeste 0 -- -- 57
2019-11-08 02:00:00 10.9 7 Oeste 16 Oeste 0 -- -- 53
2019-11-08 01:00:00 11.5 10 Oeste 22 Sudoeste 0 -- -- 50
2019-11-08 00:00:00 11.2 2 Sudoeste 15 Sudoeste 0 -- -- 49
2019-11-07 23:00:00 11.3 8 Oeste 26 Noroeste 0 -- -- 54
2019-11-07 22:00:00 12.1 9 Oeste 17 Oeste 0 -- -- 52
2019-11-07 21:00:00 13.9 9 Sudoeste 24 Noroeste 0 -- -- 46
2019-11-07 20:00:00 13.6 10 Oeste 21 Noroeste 0 -- -- 51
2019-11-07 19:00:00 14.2 3 Oeste 11 Oeste 0 -- -- 54
2019-11-07 18:00:00 15.6 4 Noroeste 16 Oeste 0.2 -- -- 53
2019-11-07 17:00:00 17.3 5 Oeste 24 Noroeste 0 -- -- 55
2019-11-07 16:00:00 17.5 8 Oeste 14 Oeste 0 -- -- 60
2019-11-07 15:00:00 15.8 4 Oeste 21 Norte 0.6 -- -- 76
2019-11-07 14:00:00 16.9 5 Noroeste 12 Noroeste 0.2 -- -- 69
2019-11-07 13:00:00 18.6 5 Nordeste 12 Nordeste 0 -- -- 52
2019-11-07 12:00:00 15.8 5 Nordeste 10 Nordeste 0 -- -- 57
2019-11-07 11:00:00 13.5 4 Nordeste 8 Noroeste 0 -- -- 60
2019-11-07 10:00:00 10.4 3 Noroeste 9 Oeste 0 -- -- 68
2019-11-07 09:00:00 9.2 3 Noroeste 9 Oeste 0 -- -- 71
2019-11-07 08:00:00 7.6 2 Sur 10 Oeste 0 -- -- 74
2019-11-07 07:00:00 6.9 2 Sudoeste 12 Sur 0 -- -- 74
2019-11-07 06:00:00 7.7 3 Sur 14 Sur 0 -- -- 71
2019-11-07 05:00:00 8.1 6 Sur 8 Sur 0 -- -- 68
2019-11-07 04:00:00 8 7 Sur 11 Sudeste 0 -- -- 68
2019-11-07 03:00:00 7.7 5 Sur 9 Sur 0 -- -- 70
2019-11-07 02:00:00 7.8 5 Sur 10 Sur 0 -- -- 70
2019-11-07 01:00:00 8.4 5 Sur 9 Sur 0 -- -- 70
2019-11-07 00:00:00 9 5 Sur 10 Sur 0 -- -- 69
2019-11-06 23:00:00 10.5 5 Sur 9 Oeste 0 -- -- 63
2019-11-06 22:00:00 10.7 0 Calma 11 Noroeste 0 -- -- 59
2019-11-06 21:00:00 11.8 8 Oeste 13 Oeste 0 -- -- 55
2019-11-06 20:00:00 12.6 9 Oeste 17 Oeste 0 -- -- 53
2019-11-06 19:00:00 12.4 5 Noroeste 18 Noroeste 0 -- -- 55
2019-11-06 18:00:00 14.3 10 Noroeste 32 Noroeste 0 -- -- 48
2019-11-06 17:00:00 15.8 15 Noroeste 35 Noroeste 0 -- -- 44
2019-11-06 16:00:00 17.1 18 Noroeste 37 Norte 0 -- -- 42
2019-11-06 15:00:00 17.5 15 Norte 31 Norte 0 -- -- 41
2019-11-06 14:00:00 17 15 Noroeste 30 Oeste 0 -- -- 42
2019-11-06 13:00:00 17.1 13 Oeste 29 Noroeste 0 -- -- 45
2019-11-06 12:00:00 15.9 15 Noroeste 27 Noroeste 0 -- -- 47
2019-11-06 11:00:00 15.7 12 Noroeste 24 Oeste 0 -- -- 48
2019-11-06 10:00:00 14.4 13 Noroeste 26 Noroeste 0 -- -- 53
2019-11-06 09:00:00 12.8 2 Sur 7 Noroeste 0 -- -- 57
2019-11-06 08:00:00 10.2 0 Calma 10 Oeste 0 -- -- 64
2019-11-06 07:00:00 10.8 7 Oeste 10 Oeste 0 -- -- 62
2019-11-06 06:00:00 11.4 5 Oeste 9 Oeste 0 -- -- 61
2019-11-06 05:00:00 10.8 4 Oeste 6 Oeste 0 -- -- 66
2019-11-06 04:00:00 11 3 Norte 6 Norte 0 -- -- 65
2019-11-06 03:00:00 11.4 5 Oeste 8 Oeste 0 -- -- 63
2019-11-06 02:00:00 12.3 2 Oeste 13 Oeste 0 -- -- 60
2019-11-06 01:00:00 13.5 9 Oeste 15 Oeste 0 -- -- 55
2019-11-06 00:00:00 13.2 4 Sudoeste 12 Oeste 0 -- -- 57
2019-11-05 23:00:00 13.4 7 Sudoeste 25 Oeste 0 -- -- 55
2019-11-05 22:00:00 13.9 7 Oeste 17 Sudoeste 0 -- -- 53
2019-11-05 21:00:00 13.8 8 Oeste 16 Oeste 0 -- -- 52
2019-11-05 20:00:00 14.7 9 Sudoeste 19 Sudoeste 0 -- -- 51
2019-11-05 19:00:00 14.4 9 Sudoeste 22 Oeste 0 -- -- 52
2019-11-05 18:00:00 14.3 9 Oeste 31 Oeste 0 -- -- 54
2019-11-05 17:00:00 15.5 15 Oeste 36 Noroeste 0 -- -- 51
2019-11-05 16:00:00 17.1 19 Oeste 41 Oeste 0 -- -- 44
2019-11-05 15:00:00 16.3 23 Oeste 51 Noroeste 0 -- -- 45
2019-11-05 14:00:00 16.8 21 Noroeste 44 Noroeste 0 -- -- 43
2019-11-05 13:00:00 16 26 Noroeste 49 Oeste 0 -- -- 44
2019-11-05 12:00:00 16.3 19 Noroeste 37 Noroeste 0 -- -- 45
2019-11-05 11:00:00 14.7 16 Noroeste 36 Oeste 0 -- -- 49
2019-11-05 10:00:00 14.5 14 Noroeste 34 Noroeste 0 -- -- 52
2019-11-05 09:00:00 14.5 11 Oeste 20 Oeste 0 -- -- 54
2019-11-05 08:00:00 13.8 8 Oeste 17 Oeste 0 -- -- 57
2019-11-05 07:00:00 13.6 8 Sudoeste 18 Oeste 0 -- -- 62
2019-11-05 06:00:00 13.3 6 Noroeste 14 Noroeste 0 -- -- 74
2019-11-05 05:00:00 13.1 4 Noroeste 31 Norte 0 -- -- 81
2019-11-05 04:00:00 14.8 13 Noroeste 26 Noroeste 0 -- -- 76
2019-11-05 03:00:00 16.2 10 Noroeste 18 Sudoeste 0 -- -- 66
2019-11-05 02:00:00 16.5 5 Sudoeste 15 Sudoeste 0 -- -- 56
2019-11-05 01:00:00 15.7 6 Sudoeste 13 Sudeste 0 -- -- 56
2019-11-05 00:00:00 17.6 4 Sur 23 Oeste 0 -- -- 50
2019-11-04 23:00:00 18.8 11 Sudoeste 30 Sudoeste 0 -- -- 46
2019-11-04 22:00:00 18.3 11 Sudoeste 23 Sudoeste 0 -- -- 47
2019-11-04 21:00:00 18 7 Sudoeste 28 Oeste 0 -- -- 48
2019-11-04 20:00:00 18.7 9 Oeste 30 Oeste 0 -- -- 46
2019-11-04 19:00:00 18.5 4 Sudoeste 11 Sudoeste 0 -- -- 49
2019-11-04 18:00:00 19.5 8 Oeste 32 Oeste 0 -- -- 45
2019-11-04 17:00:00 21.2 18 Oeste 40 Oeste 0 -- -- 42
2019-11-04 16:00:00 22.7 23 Oeste 44 Oeste 0 -- -- 42
2019-11-04 15:00:00 23.6 14 Oeste 32 Oeste 0 -- -- 38
2019-11-04 14:00:00 23.7 14 Oeste 26 Oeste 0 -- -- 37
2019-11-04 13:00:00 23.6 9 Oeste 21 Oeste 0 -- -- 38
2019-11-04 12:00:00 22.3 5 Nordeste 12 Nordeste 0 -- -- 48
2019-11-04 11:00:00 19.7 4 Norte 9 Nordeste 0 -- -- 62
2019-11-04 10:00:00 17.1 2 Este 5 Noroeste 0 -- -- 67
2019-11-04 09:00:00 16.1 3 Norte 5 Este 0 -- -- 72
2019-11-04 08:00:00 14.7 3 Sur 7 Sudeste 0 -- -- 74
2019-11-04 07:00:00 15.4 4 Sudeste 9 Sudeste 0 -- -- 70
2019-11-04 06:00:00 15.8 3 Sudeste 6 Sudeste 0 -- -- 67
2019-11-04 05:00:00 16.3 2 Sudoeste 9 Sur 0 -- -- 64
2019-11-04 04:00:00 15.6 6 Sur 11 Sur 0 -- -- 61
2019-11-04 03:00:00 17.8 7 Oeste 23 Sudoeste 0 -- -- 54
2019-11-04 02:00:00 17.8 8 Sudoeste 32 Sudoeste 0 -- -- 51
2019-11-04 01:00:00 17 7 Sudoeste 14 Sudoeste 0 -- -- 52
2019-11-04 00:00:00 17.5 7 Oeste 19 Noroeste 0 -- -- 48
2019-11-03 23:00:00 16.6 3 Sudoeste 11 Oeste 0 -- -- 52
2019-11-03 22:00:00 17.8 8 Oeste 16 Sudoeste 0 -- -- 51
2019-11-03 21:00:00 18.3 0 Calma 17 Oeste 0 -- -- 50
2019-11-03 20:00:00 18.3 9 Noroeste 23 Noroeste 0 -- -- 52
2019-11-03 19:00:00 18.1 4 Noroeste 37 Noroeste 0 -- -- 54
2019-11-03 18:00:00 19.2 10 Oeste 31 Oeste 0 -- -- 51
2019-11-03 17:00:00 20.5 10 Noroeste 40 Noroeste 0 -- -- 49
2019-11-03 16:00:00 20.9 24 Oeste 48 Oeste 0 -- -- 48
2019-11-03 15:00:00 21.7 22 Oeste 55 Oeste 0 -- -- 46
2019-11-03 14:00:00 22.2 21 Noroeste 47 Oeste 0 -- -- 46
2019-11-03 13:00:00 22.2 23 Oeste 50 Oeste 0 -- -- 45
2019-11-03 12:00:00 21.9 17 Oeste 40 Oeste 0 -- -- 45
2019-11-03 11:00:00 22.4 17 Oeste 41 Noroeste 0 -- -- 43
2019-11-03 10:00:00 21.3 15 Oeste 35 Sudoeste 0 -- -- 47
2019-11-03 09:00:00 19.7 3 Sudeste 7 Sur 0 -- -- 52
2019-11-03 08:00:00 17.6 6 Oeste 17 Noroeste 0 -- -- 55
2019-11-03 07:00:00 18.4 8 Oeste 37 Oeste 0 -- -- 52
2019-11-03 06:00:00 16.9 4 Noroeste 9 Noroeste 0 -- -- 55
2019-11-03 05:00:00 17.4 4 Sudoeste 18 Oeste 0 -- -- 57
2019-11-03 04:00:00 17.7 6 Oeste 17 Oeste 0 -- -- 65
2019-11-03 03:00:00 18.1 7 Sudoeste 18 Oeste 0 -- -- 64
2019-11-03 02:00:00 18.1 4 Sudoeste 12 Sur 0 -- -- 64
2019-11-03 01:00:00 18.5 6 Sudoeste 21 Sudoeste 0 -- -- 63
2019-11-03 00:00:00 19.2 11 Oeste 22 Sudoeste 0 -- -- 60
2019-11-02 23:00:00 17.1 5 Sudoeste 24 Oeste 0 -- -- 65
2019-11-02 22:00:00 17.6 5 Sur 16 Sur 0 -- -- 62
2019-11-02 21:00:00 18.3 6 Sur 14 Sudoeste 0 -- -- 59
2019-11-02 20:00:00 19.5 5 Sudoeste 18 Sudoeste 0 -- -- 54
2019-11-02 19:00:00 20.9 8 Sudoeste 24 Oeste 0 -- -- 51
2019-11-02 18:00:00 20.9 5 Sudoeste 23 Sudoeste 0 -- -- 49
2019-11-02 17:00:00 22.5 8 Sudoeste 28 Sudoeste 0 -- -- 44
2019-11-02 16:00:00 23.4 16 Oeste 32 Oeste 0 -- -- 40
2019-11-02 15:00:00 23.9 14 Oeste 37 Oeste 0 -- -- 40
2019-11-02 14:00:00 23.8 17 Oeste 39 Oeste 0 -- -- 41
2019-11-02 13:00:00 23.7 15 Oeste 32 Oeste 0 -- -- 43
2019-11-02 12:00:00 22.8 10 Oeste 23 Oeste 0 -- -- 50
2019-11-02 11:00:00 20.5 9 Sudoeste 24 Sudoeste 0 -- -- 59
2019-11-02 10:00:00 19.2 8 Sudoeste 17 Sudoeste 0 -- -- 62
2019-11-02 09:00:00 19.9 9 Sudoeste 21 Sudoeste 0 -- -- 56
2019-11-02 08:00:00 19.4 6 Sudoeste 11 Sudoeste 0 -- -- 56
2019-11-02 07:00:00 19.2 4 Sudoeste 17 Noroeste 0 -- -- 58
2019-11-02 06:00:00 19.4 4 Sudoeste 18 Oeste 0 -- -- 58
2019-11-02 05:00:00 19.4 6 Oeste 20 Oeste 0 -- -- 59
2019-11-02 04:00:00 19.5 4 Norte 10 Oeste 0 -- -- 59
2019-11-02 03:00:00 19.8 4 Oeste 22 Oeste 0 -- -- 57
2019-11-02 02:00:00 19.8 3 Sudoeste 15 Oeste 0 -- -- 58
2019-11-02 01:00:00 20.2 6 Oeste 16 Oeste 0 -- -- 58
2019-11-02 00:00:00 20.6 5 Noroeste 18 Sudoeste 0 -- -- 59
2019-11-01 23:00:00 21.5 6 Oeste 13 Sudoeste 0 -- -- 56
2019-11-01 22:00:00 21.7 3 Oeste 12 Oeste 0 -- -- 58
2019-11-01 21:00:00 21.2 8 Oeste 13 Noroeste 0 -- -- 60
2019-11-01 20:00:00 21.1 4 Oeste 9 Oeste 0 -- -- 61
2019-11-01 19:00:00 22 5 Oeste 14 Oeste 0 -- -- 58
2019-11-01 18:00:00 22.6 8 Oeste 19 Oeste 0 -- -- 55
2019-11-01 17:00:00 23.7 11 Noroeste 31 Oeste 0 -- -- 53
2019-11-01 16:00:00 24.8 15 Noroeste 32 Oeste 0 -- -- 50
2019-11-01 15:00:00 25.5 14 Oeste 38 Oeste 0 -- -- 49
2019-11-01 14:00:00 25.2 14 Oeste 31 Oeste 0 -- -- 48
2019-11-01 13:00:00 25.2 16 Noroeste 33 Noroeste 0 -- -- 49
2019-11-01 12:00:00 25 14 Noroeste 31 Oeste 0 -- -- 51
2019-11-01 11:00:00 23.9 13 Oeste 30 Noroeste 0 -- -- 53
2019-11-01 10:00:00 22 3 Noroeste 8 Noroeste 0 -- -- 64
2019-11-01 09:00:00 19.6 3 Noroeste 10 Sur 0 -- -- 71
2019-11-01 08:00:00 15.9 7 Sur 14 Sudeste 0 -- -- 79
2019-11-01 07:00:00 16 8 Sur 12 Sudeste 0 -- -- 79
2019-11-01 06:00:00 15.9 6 Sur 11 Sur 0 -- -- 77
2019-11-01 05:00:00 15 5 Sur 10 Sur 0 -- -- 79
2019-11-01 04:00:00 16.8 5 Oeste 10 Oeste 0 -- -- 76
2019-11-01 03:00:00 15.3 6 Sudoeste 9 Oeste 0 -- -- 79
2019-11-01 02:00:00 15.3 4 Sudoeste 12 Sudoeste 0 -- -- 79
2019-11-01 01:00:00 16.2 6 Sur 10 Sur 0 -- -- 76
2019-11-01 00:00:00 16.4 6 Sur 10 Sur 0 -- -- 75
2019-10-31 23:00:00 16.7 6 Sur 15 Oeste 0 -- -- 74
2019-10-31 22:00:00 19.6 10 Oeste 16 Oeste 0 -- -- 64
2019-10-31 21:00:00 19.8 4 Oeste 9 Oeste 0 -- -- 63
2019-10-31 20:00:00 20.2 5 Sudoeste 9 Oeste 0 -- -- 61
2019-10-31 19:00:00 20.9 4 Oeste 8 Oeste 0 -- -- 58
2019-10-31 18:00:00 21.6 3 Noroeste 23 Oeste 0 -- -- 58
2019-10-31 17:00:00 23.1 8 Oeste 21 Noroeste 0 -- -- 52
2019-10-31 16:00:00 23.7 12 Oeste 32 Oeste 0 -- -- 51
2019-10-31 15:00:00 24.3 14 Oeste 33 Oeste 0 -- -- 49
2019-10-31 14:00:00 24 15 Noroeste 28 Oeste 0 -- -- 51
2019-10-31 13:00:00 23.9 14 Noroeste 30 Noroeste 0 -- -- 51
2019-10-31 12:00:00 23.4 12 Noroeste 20 Norte 0 -- -- 55
2019-10-31 11:00:00 21.9 9 Noroeste 15 Noroeste 0 -- -- 61
2019-10-31 10:00:00 20 3 Nordeste 6 Sur 0 -- -- 69
2019-10-31 09:00:00 18 4 Sudoeste 11 Oeste 0 -- -- 72
2019-10-31 08:00:00 17 4 Oeste 8 Oeste 0 -- -- 76
2019-10-31 07:00:00 16.5 4 Oeste 8 Oeste 0 -- -- 75
2019-10-31 06:00:00 15.8 3 Noroeste 4 Oeste 0 -- -- 76
2019-10-31 05:00:00 15.5 4 Sur 12 Sur 0 -- -- 79
2019-10-31 04:00:00 16 3 Sur 9 Sur 0 -- -- 78
2019-10-31 03:00:00 15.9 7 Sur 9 Sur 0 -- -- 78
2019-10-31 02:00:00 16.3 4 Sur 8 Sur 0 -- -- 76
2019-10-31 01:00:00 16.6 7 Sur 8 Sur 0 -- -- 74
2019-10-31 00:00:00 17 5 Sur 7 Sur 0 -- -- 70
2019-10-30 23:00:00 17.3 6 Sur 9 Sur 0 -- -- 70
2019-10-30 22:00:00 18.1 3 Sur 8 Sudoeste 0 -- -- 66
2019-10-30 21:00:00 18.5 4 Sur 8 Sudoeste 0 -- -- 62
2019-10-30 20:00:00 19.8 5 Sur 10 Oeste 0 -- -- 57
2019-10-30 19:00:00 21.3 6 Oeste 9 Oeste 0 -- -- 48
2019-10-30 18:00:00 22.1 3 Nordeste 18 Noroeste 0 -- -- 48
2019-10-30 17:00:00 24.4 8 Norte 19 Nordeste 0 -- -- 41
2019-10-30 16:00:00 24.9 9 Norte 18 Norte 0 -- -- 42
2019-10-30 15:00:00 24.7 9 Norte 15 Nordeste 0 -- -- 46
2019-10-30 14:00:00 24.5 8 Norte 20 Noroeste 0 -- -- 50
2019-10-30 13:00:00 23.8 9 Norte 18 Noroeste 0 -- -- 50
2019-10-30 12:00:00 21.8 4 Nordeste 9 Nordeste 0 -- -- 59
2019-10-30 11:00:00 19.9 3 Este 9 Norte 0 -- -- 64
2019-10-30 10:00:00 17.6 4 Sudeste 8 Sudeste 0 -- -- 68
2019-10-30 09:00:00 15.2 4 Sur 9 Sudoeste 0 -- -- 75
2019-10-30 08:00:00 12.9 5 Sur 8 Sur 0 -- -- 82
2019-10-30 07:00:00 12.8 6 Sudoeste 9 Sur 0 -- -- 83
2019-10-30 06:00:00 12.4 5 Sur 8 Sur 0 -- -- 85
2019-10-30 05:00:00 12.5 6 Sur 8 Sudoeste 0 -- -- 85
2019-10-30 04:00:00 13.2 6 Sudoeste 9 Sudoeste 0 -- -- 83
2019-10-30 03:00:00 14.3 0 Calma 6 Sudoeste 0 -- -- 79
2019-10-30 02:00:00 14.4 5 Sudoeste 9 Oeste 0 -- -- 80
2019-10-30 01:00:00 15 4 Sur 9 Sudoeste 0 -- -- 79
2019-10-30 00:00:00 16.8 3 Sur 12 Oeste 0 -- -- 73
2019-10-29 23:00:00 16.8 2 Noroeste 13 Oeste 0 -- -- 74
2019-10-29 22:00:00 17.6 0 Calma 9 Oeste 0 -- -- 70
2019-10-29 21:00:00 18.6 5 Oeste 11 Noroeste 0 -- -- 66
2019-10-29 20:00:00 19 8 Noroeste 15 Norte 0 -- -- 66
2019-10-29 19:00:00 19.6 4 Noroeste 10 Nordeste 0 -- -- 65
2019-10-29 18:00:00 21.4 6 Norte 15 Nordeste 0 -- -- 60
2019-10-29 17:00:00 23.6 5 Norte 12 Norte 0 -- -- 53
2019-10-29 16:00:00 24.4 5 Nordeste 12 Este 0 -- -- 50
2019-10-29 15:00:00 24.8 5 Nordeste 12 Norte 0 -- -- 48
2019-10-29 14:00:00 23.9 4 Este 15 Norte 0 -- -- 53
2019-10-29 13:00:00 22.9 4 Norte 11 Nordeste 0 -- -- 54
2019-10-29 12:00:00 21.2 4 Norte 10 Nordeste 0 -- -- 57
2019-10-29 11:00:00 19.5 3 Sudeste 6 Sudeste 0 -- -- 60
2019-10-29 10:00:00 16.6 3 Sudeste 10 Sur 0 -- -- 71
2019-10-29 09:00:00 13.5 5 Sur 10 Sur 0 -- -- 79
2019-10-29 08:00:00 11.2 7 Sur 10 Sur 0 -- -- 89
2019-10-29 07:00:00 11.1 5 Sur 8 Sudoeste 0 -- -- 90
2019-10-29 06:00:00 11.6 5 Sur 6 Sur 0 -- -- 90
2019-10-29 05:00:00 11.9 3 Sur 8 Sur 0 -- -- 90
2019-10-29 04:00:00 12.8 3 Sur 4 Sur 0 -- -- 88
2019-10-29 03:00:00 13 2 Oeste 7 Sur 0 -- -- 89
2019-10-29 02:00:00 13 5 Sur 6 Sur 0 -- -- 89
2019-10-29 01:00:00 12.9 5 Sur 8 Sur 0 -- -- 89
2019-10-29 00:00:00 13.3 0 Calma 8 Sur 0 -- -- 89
2019-10-28 23:00:00 13.8 4 Sur 8 Sur 0 -- -- 88
2019-10-28 22:00:00 14.6 2 Sur 4 Noroeste 0 -- -- 87
2019-10-28 21:00:00 15.8 4 Sur 5 Sur 0 -- -- 84
2019-10-28 20:00:00 16.5 0 Calma 5 Norte 0 -- -- 82
2019-10-28 19:00:00 17.4 3 Norte 5 Nordeste 0 -- -- 79
2019-10-28 18:00:00 18.9 3 Nordeste 5 Nordeste 0 -- -- 74
2019-10-28 17:00:00 20.6 3 Nordeste 8 Sudeste 0 -- -- 68
2019-10-28 16:00:00 21.2 2 Sudeste 8 Este 0 -- -- 63
2019-10-28 15:00:00 20.4 0 Calma 9 Sudeste 0 -- -- 66
2019-10-28 14:00:00 18.7 3 Norte 7 Sudeste 0 -- -- 75
2019-10-28 13:00:00 17.9 3 Nordeste 10 Noroeste 0 -- -- 76
2019-10-28 12:00:00 16.9 3 Noroeste 8 Oeste 0 -- -- 80
2019-10-28 11:00:00 16.4 4 Norte 7 Este 0 -- -- 80
2019-10-28 10:00:00 15.9 3 Norte 6 Oeste 0 -- -- 86
2019-10-28 09:00:00 13.8 2 Noroeste 6 Sudoeste 0 -- -- 94
2019-10-28 08:00:00 13.3 2 Oeste 10 Noroeste 0 -- -- 94
2019-10-28 07:00:00 12.5 3 Sur 4 Sudeste 0 -- -- 93
2019-10-28 06:00:00 12.1 2 Sur 5 Sur 0 -- -- 93
2019-10-28 05:00:00 12.1 3 Sur 8 Sudoeste 0 -- -- 94
2019-10-28 04:00:00 12.2 5 Sur 8 Sur 0 -- -- 93
2019-10-28 03:00:00 12.4 4 Sur 7 Sur 0 -- -- 92
2019-10-28 02:00:00 12.8 4 Sur 6 Sur 0 -- -- 91
2019-10-28 01:00:00 13.7 4 Sur 8 Sudoeste 0 -- -- 91
2019-10-28 00:00:00 14.3 4 Sudeste 6 Oeste 0 -- -- 91
2019-10-27 23:00:00 15.1 2 Norte 4 Sudoeste 0 -- -- 88
2019-10-27 22:00:00 15.8 3 Sudeste 10 Sudeste 0 -- -- 85
2019-10-27 21:00:00 16.8 5 Sudeste 11 Sudeste 0 -- -- 82
2019-10-27 20:00:00 17.2 6 Sudeste 13 Sur 0 -- -- 80
2019-10-27 19:00:00 17.9 9 Sudeste 12 Sur 0 -- -- 78
2019-10-27 18:00:00 19.1 8 Sudeste 17 Sudeste 0 -- -- 73
2019-10-27 17:00:00 20.4 10 Sudeste 18 Sudeste 0 -- -- 66
2019-10-27 16:00:00 20.8 6 Nordeste 13 Nordeste 0 -- -- 67
2019-10-27 15:00:00 20.6 6 Nordeste 13 Nordeste 0 -- -- 68
2019-10-27 14:00:00 20 6 Nordeste 12 Nordeste 0 -- -- 67
2019-10-27 13:00:00 19.3 5 Nordeste 13 Este 0 -- -- 69
2019-10-27 12:00:00 18.2 4 Norte 9 Nordeste 0 -- -- 71
2019-10-27 11:00:00 16.5 4 Noroeste 8 Noroeste 0 -- -- 78
2019-10-27 10:00:00 14.2 3 Sudeste 4 Sudeste 0 -- -- 92
2019-10-27 09:00:00 13 0 Calma 3 Este 0 -- -- 93
2019-10-27 08:00:00 12.7 0 Calma 3 Nordeste 0 -- -- 93
2019-10-27 07:00:00 12.7 0 Calma 8 Sudeste 0 -- -- 91
2019-10-27 06:00:00 12.6 5 Sudeste 8 Sudeste 0 -- -- 93
2019-10-27 05:00:00 11.8 4 Sur 9 Sudeste 0 -- -- 93
2019-10-27 04:00:00 11.8 6 Sur 12 Sur 0 -- -- 92
2019-10-27 03:00:00 11.6 8 Sur 10 Sudeste 0 -- -- 91
2019-10-27 02:00:00 12.1 4 Sur 9 Sudoeste 0 -- -- 91
2019-10-27 01:00:00 13.9 3 Sudeste 4 Sudeste 0 -- -- 89
2019-10-27 00:00:00 15.1 0 Calma 4 Este 0 -- -- 90
2019-10-26 23:00:00 15.7 0 Calma 3 Este 0 -- -- 87
2019-10-26 22:00:00 16.5 0 Calma 6 Sudeste 0 -- -- 84
2019-10-26 21:00:00 17.4 6 Sur 12 Sudeste 0 -- -- 78
2019-10-26 20:00:00 18.8 9 Sudeste 13 Sudeste 0 -- -- 69
2019-10-26 19:00:00 20.6 7 Sudeste 18 Sudeste 0 -- -- 63
2019-10-26 18:00:00 22.6 10 Sudeste 17 Sudeste 0 -- -- 54
2019-10-26 17:00:00 23.4 5 Este 16 Nordeste 0 -- -- 53
2019-10-26 16:00:00 23.3 5 Este 11 Este 0 -- -- 50
2019-10-26 15:00:00 23.1 3 Este 8 Nordeste 0 -- -- 49
2019-10-26 14:00:00 21.4 3 Nordeste 8 Norte 0 -- -- 52
2019-10-26 13:00:00 19.4 3 Norte 10 Norte 0 -- -- 56
2019-10-26 12:00:00 17.4 4 Norte 9 Noroeste 0 -- -- 61
2019-10-26 11:00:00 14.9 3 Norte 8 Oeste 0 -- -- 72
2019-10-26 10:00:00 12.4 4 Sur 8 Sur 0 -- -- 80
2019-10-26 09:00:00 10.3 3 Sudoeste 8 Sudoeste 0 -- -- 90
2019-10-26 08:00:00 10.1 4 Noroeste 9 Oeste 0 -- -- 88
2019-10-26 07:00:00 9.8 4 Sudoeste 8 Oeste 0 -- -- 89
2019-10-26 06:00:00 10 4 Sur 9 Sudoeste 0 -- -- 88
2019-10-26 05:00:00 10.8 3 Sur 6 Sur 0 -- -- 87
2019-10-26 04:00:00 11.4 5 Sur 9 Sur 0 -- -- 87
2019-10-26 03:00:00 11.2 5 Sur 10 Sur 0 -- -- 89
2019-10-26 02:00:00 12 6 Sur 10 Sudoeste 0 -- -- 86
2019-10-26 01:00:00 12.5 6 Sur 8 Sur 0 -- -- 85
2019-10-26 00:00:00 13.6 4 Sudoeste 6 Sur 0 -- -- 82
2019-10-25 23:00:00 14.4 5 Sur 8 Sur 0 -- -- 81
2019-10-25 22:00:00 16.3 4 Sur 5 Sudoeste 0 -- -- 71
2019-10-25 21:00:00 17.7 0 Calma 9 Sudeste 0 -- -- 63
2019-10-25 20:00:00 19.4 6 Sudeste 18 Sudeste 0 -- -- 57
2019-10-25 19:00:00 21.3 4 Sudeste 10 Sudeste 0 -- -- 51
2019-10-25 18:00:00 22.6 7 Sudeste 14 Sudeste 0 -- -- 48
2019-10-25 17:00:00 23.1 9 Sudeste 17 Sudeste 0 -- -- 49
2019-10-25 16:00:00 23.3 4 Este 12 Sudeste 0 -- -- 49
2019-10-25 15:00:00 22.8 4 Sudeste 10 Sudeste 0 -- -- 47
2019-10-25 14:00:00 20.8 5 Nordeste 9 Norte 0 -- -- 51
2019-10-25 13:00:00 18.5 4 Nordeste 10 Este 0 -- -- 57
2019-10-25 12:00:00 16.5 4 Noroeste 8 Nordeste 0 -- -- 60
2019-10-25 11:00:00 14.6 3 Nordeste 5 Nordeste 0 -- -- 66
2019-10-25 10:00:00 12.1 3 Sur 8 Sur 0 -- -- 74
2019-10-25 09:00:00 10 4 Sur 10 Oeste 0 -- -- 78
2019-10-25 08:00:00 8.6 4 Sur 6 Sur 0 -- -- 84
2019-10-25 07:00:00 9.1 4 Sur 9 Sudoeste 0 -- -- 82
2019-10-25 06:00:00 9.7 3 Sudoeste 13 Sudoeste 0 -- -- 81
2019-10-25 05:00:00 9.8 3 Sur 10 Noroeste 0 -- -- 80
2019-10-25 04:00:00 10.9 7 Noroeste 13 Noroeste 0 -- -- 75
2019-10-25 03:00:00 10.3 9 Sur 17 Sudeste 0 -- -- 80
2019-10-25 02:00:00 11.3 6 Sur 14 Sur 0 -- -- 76
2019-10-25 01:00:00 13 3 Noroeste 8 Oeste 0 -- -- 67
2019-10-25 00:00:00 13.3 4 Oeste 12 Noroeste 0 -- -- 65
2019-10-24 23:00:00 13.2 9 Noroeste 13 Oeste 0 -- -- 67
2019-10-24 22:00:00 13.7 4 Sudeste 9 Oeste 0 -- -- 66
2019-10-24 21:00:00 14.6 3 Noroeste 9 Oeste 0 -- -- 61
2019-10-24 20:00:00 16.3 5 Oeste 15 Oeste 0 -- -- 54
2019-10-24 19:00:00 16.8 8 Oeste 25 Noroeste 0 -- -- 54
2019-10-24 18:00:00 18.4 13 Oeste 30 Oeste 0 -- -- 48
2019-10-24 17:00:00 19 14 Noroeste 30 Noroeste 0 -- -- 46
2019-10-24 16:00:00 18.6 17 Oeste 31 Noroeste 0 -- -- 47
2019-10-24 15:00:00 17.9 15 Noroeste 29 Noroeste 0 -- -- 50
2019-10-24 14:00:00 16.4 17 Oeste 37 Noroeste 0 -- -- 54
2019-10-24 13:00:00 16.4 15 Noroeste 33 Noroeste 0 -- -- 56
2019-10-24 12:00:00 16 15 Noroeste 33 Oeste 0 -- -- 59
2019-10-24 11:00:00 15.3 13 Noroeste 25 Noroeste 0 -- -- 62
2019-10-24 10:00:00 13.8 2 Nordeste 7 Sur 0 -- -- 71
2019-10-24 09:00:00 10.5 2 Sudoeste 5 Sudoeste 0 -- -- 82
2019-10-24 08:00:00 9.8 4 Sudeste 10 Oeste 0 -- -- 81
2019-10-24 07:00:00 9.5 6 Sudoeste 9 Sur 0 -- -- 84
2019-10-24 06:00:00 9.4 5 Sur 9 Sur 0 -- -- 85
2019-10-24 05:00:00 10.1 5 Sur 9 Sur 0 -- -- 84
2019-10-24 04:00:00 9.7 5 Sur 7 Sudeste 0 -- -- 87
2019-10-24 03:00:00 10.3 0 Calma 7 Sur 0 -- -- 81
2019-10-24 02:00:00 10.9 3 Oeste 5 Oeste 0 -- -- 80
2019-10-24 01:00:00 11.1 3 Oeste 8 Oeste 0 -- -- 77
2019-10-24 00:00:00 11.4 4 Noroeste 8 Noroeste 0 -- -- 74
2019-10-23 23:00:00 11.2 0 Calma 7 Este 0 -- -- 82
2019-10-23 22:00:00 11.7 3 Sudeste 8 Norte 0.2 -- -- 77
2019-10-23 21:00:00 12.4 4 Norte 6 Noroeste 0 -- -- 66
2019-10-23 20:00:00 13 5 Noroeste 9 Oeste 0 -- -- 61
2019-10-23 19:00:00 13.8 2 Noroeste 10 Oeste 0 -- -- 56
2019-10-23 18:00:00 14.6 5 Sudoeste 27 Oeste 0 -- -- 52
2019-10-23 17:00:00 15.2 15 Oeste 33 Oeste 0 -- -- 48
2019-10-23 16:00:00 16 10 Norte 26 Sudoeste 0 -- -- 56
2019-10-23 15:00:00 16.3 2 Este 8 Noroeste 0 -- -- 56
2019-10-23 14:00:00 15.6 5 Nordeste 13 Este 0 -- -- 60
2019-10-23 13:00:00 16.1 5 Norte 12 Nordeste 0 -- -- 61
2019-10-23 12:00:00 14.3 6 Noroeste 14 Oeste 0 -- -- 72
2019-10-23 11:00:00 12.3 3 Nordeste 9 Sudeste 0 -- -- 81
2019-10-23 10:00:00 10 3 Sudeste 6 Sur 0 -- -- 81
2019-10-23 09:00:00 6.8 0 Calma 8 Sudeste 0 -- -- 91
2019-10-23 08:00:00 7.2 0 Calma 12 Sur 0 -- -- 91
2019-10-23 07:00:00 7.8 9 Sur 12 Sur 0 -- -- 91
2019-10-23 06:00:00 7.8 7 Sur 14 Sur 0 -- -- 92
2019-10-23 05:00:00 8.3 0 Calma 9 Sudoeste 0.2 -- -- 93
2019-10-23 04:00:00 8.4 3 Sudoeste 9 Sur 0 -- -- 93
2019-10-23 03:00:00 9.2 5 Sur 9 Sur 0 -- -- 93
2019-10-23 02:00:00 10.1 5 Sur 8 Sur 0 -- -- 93
2019-10-23 01:00:00 10.4 2 Sur 6 Sudoeste 0 -- -- 92
2019-10-23 00:00:00 11 2 Oeste 4 Oeste 0.2 -- -- 90
2019-10-22 23:00:00 11.3 2 Noroeste 3 Oeste 0.6 -- -- 88
2019-10-22 22:00:00 11.6 0 Calma 5 Sudoeste 0 -- -- 86
2019-10-22 21:00:00 11.5 2 Noroeste 8 Oeste 0 -- -- 85
2019-10-22 20:00:00 11.9 0 Calma 6 Sudoeste 0 -- -- 84
2019-10-22 19:00:00 12.1 2 Sur 5 Este 0 -- -- 82
2019-10-22 18:00:00 12.4 3 Este 9 Oeste 0 -- -- 80
2019-10-22 17:00:00 12 3 Noroeste 12 Noroeste 0 -- -- 82
2019-10-22 16:00:00 11.6 4 Oeste 11 Oeste 0.2 -- -- 87
2019-10-22 15:00:00 10.8 5 Oeste 11 Oeste 0.8 -- -- 91
2019-10-22 14:00:00 10.9 5 Noroeste 11 Noroeste 1.4 -- -- 93
2019-10-22 13:00:00 10.7 6 Noroeste 11 Oeste 3.2 -- -- 93
2019-10-22 12:00:00 10.8 5 Oeste 13 Oeste 4.2 -- -- 94
2019-10-22 11:00:00 10.8 8 Oeste 13 Oeste 4.8 -- -- 94
2019-10-22 10:00:00 10.8 8 Oeste 14 Oeste 5.2 -- -- 94
2019-10-22 09:00:00 10.8 5 Noroeste 8 Oeste 3.4 -- -- 93
2019-10-22 08:00:00 10.9 2 Sur 9 Norte 5.4 -- -- 92
2019-10-22 07:00:00 11.2 3 Sudeste 11 Sudoeste 3.4 -- -- 90
2019-10-22 06:00:00 10.9 4 Sudoeste 10 Oeste 1 -- -- 89
2019-10-22 05:00:00 11 10 Oeste 13 Oeste 1.6 -- -- 86
2019-10-22 04:00:00 11.9 2 Norte 18 Oeste 0.2 -- -- 76
2019-10-22 03:00:00 11.5 5 Noroeste 12 Nordeste 0 -- -- 73
2019-10-22 02:00:00 11.7 3 Sudeste 7 Sudeste 0 -- -- 72
2019-10-22 01:00:00 12 5 Sudoeste 11 Oeste 0 -- -- 71
2019-10-22 00:00:00 12.2 3 Este 9 Sur 0 -- -- 70